OIZI  Iran Shahr Airport

Add Bookmark

Iran

Status
Operational
Latitude Longitude
27° 14' 9" N 60° 43' 12" E
27.236099 60.720001
Local (DST + 5) UTC (GMT + 4)
Sep 20, 2014 08:22 Sep 20, 2014 03:52
Sunrise-Sunset Local UTC
Begin Civil Twilight 05:50 01:20
Sunrise 06:13 01:43
Sunset 06:27 13:57
End Civil Twilight 06:50 14:20

Current Weather

METAR Observed MVFR
OIZI 200300Z 00000KT 8000 SKC 28/02 Q1009 Sat, Sep 20, 2014 @ 03:00 UTC
(52 Minutes ago)
Marginal Visual Flight Rules
Wind Visibility Clouds Conditions
Calm 8000 meters
  • Clear skies
  • No significant weather
Temperatures Readings Precipitation
Current Temp 28°C (82°F)
Dewpoint 2°C (36°F)
Humidity 19%
Altimeter 29.79"Hg
Sea Level Pressure 1009mb
Field Elevation 1938.98'
None Recorded

24 Hour Weather History

Loading
-

24 Hour Weather Graphs

Loading
-

CheckWX.com is intended as a tool to help pilots better visualize weather data. It is not intended as a substitute for an official weather briefing obtained from a Flight Service Station. CheckWX.com does not meet the FAA requirements for an official pre-flight weather briefing. Therefore, it's important that pilots still call and obtain an official FSS pre-flight weather briefing.